Time;durP1;ratioP1;P1;durP2;ratioP2;P2;SDS_P1;SDS_P2;PMS_P1;PMS_P2;Temp;Humidity;BMP_temperature;BMP_pressure;BME280_temperature;BME280_humidity;BME280_pressure;Samples;Min_cycle;Max_cycle;Signal;HPM_P1;HPM_P2
2021/09/11 00:00:14;;;;;;;1.33;0.80;;;;;;;20.77;63.93;101527.34;5054804;28;20025;-89
2021/09/11 00:02:42;;;;;;;4.38;0.85;;;;;;;20.80;63.50;101525.38;5055551;28;20048;-89
2021/09/11 00:05:09;;;;;;;0.08;0.08;;;;;;;20.81;63.63;101532.50;5059273;28;20079;-92
2021/09/11 00:07:36;;;;;;;0.50;0.50;;;;;;;20.74;64.01;101520.31;5051661;28;20070;-90
2021/09/11 00:10:04;;;;;;;0.60;0.30;;;;;;;20.71;64.37;101528.56;5054996;28;20411;-89
2021/09/11 00:12:31;;;;;;;0.20;0.20;;;;;;;20.67;63.92;101525.13;5054910;28;20066;-90
2021/09/11 00:14:57;;;;;;;0.45;0.45;;;;;;;20.66;64.53;101528.75;5056291;28;20039;-92
2021/09/11 00:17:24;;;;;;;0.15;0.15;;;;;;;20.60;64.75;101526.38;5055166;28;20029;-89
2021/09/11 00:19:50;;;;;;;0.63;0.63;;;;;;;20.57;65.02;101526.53;5054887;28;20021;-90
2021/09/11 00:22:17;;;;;;;0.10;0.10;;;;;;;20.62;65.13;101524.50;5055658;28;20036;-91
2021/09/11 00:24:44;;;;;;;0.30;0.30;;;;;;;20.67;64.98;101524.22;5054349;28;20502;-90
2021/09/11 00:27:10;;;;;;;0.10;0.10;;;;;;;20.72;64.53;101521.34;5055429;28;20040;-90
2021/09/11 00:29:37;;;;;;;0.40;0.40;;;;;;;20.74;64.52;101524.84;5055218;28;20029;-90
2021/09/11 00:32:04;;;;;;;0.20;0.20;;;;;;;20.70;64.34;101529.47;5055113;28;20063;-88
2021/09/11 00:34:31;;;;;;;0.50;0.50;;;;;;;20.68;64.71;101531.34;5055084;28;20791;-89
2021/09/11 00:36:58;;;;;;;0.25;0.25;;;;;;;20.66;64.85;101527.88;5057975;28;20033;-91
2021/09/11 00:39:25;;;;;;;0.43;0.43;;;;;;;20.67;64.54;101524.22;5054899;28;20021;-89
2021/09/11 00:41:52;;;;;;;0.98;0.65;;;;;;;20.68;64.75;101526.84;5056812;28;20502;-90
2021/09/11 00:44:19;;;;;;;0.30;0.30;;;;;;;20.66;64.94;101523.38;5056527;28;20036;-90
2021/09/11 00:46:46;;;;;;;0.10;0.10;;;;;;;20.69;64.94;101522.34;5054197;28;20017;-90
2021/09/11 00:49:13;;;;;;;0.10;0.10;;;;;;;20.69;65.09;101525.03;5054842;28;20028;-91
2021/09/11 00:51:40;;;;;;;0.10;0.10;;;;;;;20.58;64.70;101524.72;5054533;28;20025;-89
2021/09/11 00:54:16;;;;;;;0.10;0.10;;;;;;;20.59;64.86;101519.25;5066151;28;20140;-89
2021/09/11 00:56:52;;;;;;;1.10;1.08;;;;;;;20.63;64.33;101517.28;5063458;28;20029;-88
2021/09/11 00:59:26;;;;;;;0.38;0.38;;;;;;;20.44;65.06;101514.66;5054200;28;20056;-89
2021/09/11 01:01:59;;;;;;;0.32;0.32;;;;;;;20.35;65.14;101522.25;5055721;28;20037;-89
2021/09/11 01:04:28;;;;;;;0.10;0.10;;;;;;;20.36;65.15;101520.41;5053490;28;20044;-89
2021/09/11 01:06:56;;;;;;;0.22;0.22;;;;;;;20.38;65.16;101523.03;5053837;28;20025;-90
2021/09/11 01:09:22;;;;;;;0.10;0.10;;;;;;;20.35;65.05;101519.56;5055906;28;20029;-89
2021/09/11 01:11:52;;;;;;;0.45;0.45;;;;;;;20.35;64.98;101524.06;5058460;28;20033;-89
2021/09/11 01:14:19;;;;;;;0.47;0.47;;;;;;;20.32;65.00;101519.69;5066347;28;20062;-89
2021/09/11 01:16:45;;;;;;;0.40;0.40;;;;;;;20.35;65.45;101524.06;5056797;28;20025;-89
2021/09/11 01:19:12;;;;;;;0.43;0.43;;;;;;;20.35;65.05;101530.31;5053320;28;20025;-89
2021/09/11 01:21:40;;;;;;;0.25;0.25;;;;;;;20.32;65.00;101529.59;5054169;28;20025;-89
2021/09/11 01:24:06;;;;;;;0.10;0.10;;;;;;;20.35;64.93;101524.94;5054789;28;20033;-88
2021/09/11 01:26:33;;;;;;;0.10;0.10;;;;;;;20.32;64.81;101527.75;5061463;28;20028;-88
2021/09/11 01:29:00;;;;;;;0.45;0.45;;;;;;;20.27;65.15;101520.88;5055427;28;20067;-90
2021/09/11 01:31:35;;;;;;;0.90;0.90;;;;;;;20.33;65.04;101526.81;5066526;28;20061;-90
2021/09/11 01:34:02;;;;;;;1.05;1.05;;;;;;;20.22;65.41;101526.50;5073867;28;20032;-90
2021/09/11 01:36:29;;;;;;;0.00;0.00;;;;;;;20.26;65.51;101524.53;5073724;28;20103;-89
2021/09/11 01:38:56;;;;;;;0.10;0.10;;;;;;;20.24;65.22;101526.41;5062721;28;20029;-90
2021/09/11 01:41:22;;;;;;;0.20;0.20;;;;;;;20.23;65.30;101525.53;5053891;28;20033;-89
2021/09/11 01:43:49;;;;;;;0.10;0.10;;;;;;;20.21;65.66;101522.06;5053733;28;20484;-89
2021/09/11 01:46:15;;;;;;;1.15;1.15;;;;;;;20.30;65.53;101524.28;5051631;28;20483;-90
2021/09/11 01:48:43;;;;;;;2.30;1.23;;;;;;;20.28;65.48;101518.13;5063066;28;20468;-90
2021/09/11 01:51:09;;;;;;;0.70;0.65;;;;;;;20.39;65.20;101519.38;5073146;28;20419;-90
2021/09/11 01:53:38;;;;;;;0.30;0.30;;;;;;;20.35;65.53;101524.06;5074364;28;20040;-91
2021/09/11 01:56:07;;;;;;;0.10;0.10;;;;;;;20.36;65.42;101520.41;5044282;28;20032;-89
2021/09/11 01:58:34;;;;;;;0.20;0.20;;;;;;;20.34;65.45;101523.19;5053419;28;20026;-89
2021/09/11 02:01:03;;;;;;;0.10;0.10;;;;;;;20.44;65.25;101522.72;5053428;28;20021;-90
2021/09/11 02:03:37;;;;;;;0.30;0.30;;;;;;;20.57;65.11;101528.34;5054732;28;20096;-89
2021/09/11 02:06:28;;;;;;;;;;;;;;;;;;;;;
2021/09/11 02:10:26;;;;;;;0.30;0.30;;;;;;;20.57;65.18;101531.03;5048198;28;20045;-91
2021/09/11 02:12:19;;;;;;;0.45;0.45;;;;;;;20.54;65.15;101532.06;5045486;28;20033;-90
2021/09/11 02:15:59;;;;;;;0.43;0.35;;;;;;;20.68;64.76;101534.06;5091095;28;20031;-91
2021/09/11 02:18:02;;;;;;;1.17;0.50;;;;;;;20.64;64.72;101527.94;5036209;28;20495;-89
2021/09/11 02:20:29;;;;;;;0.10;0.10;;;;;;;20.68;64.90;101525.97;5057659;28;20043;-89
2021/09/11 02:22:55;;;;;;;0.20;0.20;;;;;;;20.65;64.87;101524.31;5053489;28;20037;-90
2021/09/11 02:25:22;;;;;;;0.40;0.40;;;;;;;20.66;64.77;101522.47;5052369;28;20029;-89
2021/09/11 02:27:51;;;;;;;0.65;0.65;;;;;;;20.62;64.92;101519.09;5068299;28;20040;-90
2021/09/11 02:30:21;;;;;;;0.10;0.10;;;;;;;20.59;64.75;101521.94;5053091;28;20029;-91
2021/09/11 02:32:59;;;;;;;0.20;0.20;;;;;;;20.67;64.75;101530.50;5052895;28;20075;-91
2021/09/11 02:35:30;;;;;;;1.35;0.73;;;;;;;20.73;64.72;101525.78;5059305;28;20036;-91
2021/09/11 02:38:16;;;;;;;0.30;0.30;;;;;;;20.71;65.02;101524.94;5073003;28;20032;-90
2021/09/11 02:40:43;;;;;;;0.47;0.47;;;;;;;20.64;64.93;101519.03;5070639;28;20498;-90
2021/09/11 02:43:15;;;;;;;0.40;0.40;;;;;;;20.60;65.27;101521.00;5057956;28;20029;-90
2021/09/11 02:45:44;;;;;;;0.30;0.30;;;;;;;20.63;65.02;101525.34;5052615;28;20132;-90
2021/09/11 02:48:16;;;;;;;1.25;1.25;;;;;;;20.62;64.89;101524.50;5052794;28;20064;-90
2021/09/11 02:50:49;;;;;;;0.93;0.93;;;;;;;20.58;65.25;101522.03;5052742;28;20033;-90
2021/09/11 02:53:18;;;;;;;5.10;3.08;;;;;;;20.50;65.39;101522.44;5052201;28;20044;-90
2021/09/11 02:55:49;;;;;;;0.10;0.10;;;;;;;20.65;64.93;101513.53;5057460;28;20037;-90
2021/09/11 02:58:31;;;;;;;0.40;0.40;;;;;;;20.73;64.93;101518.56;5052929;28;20383;-90
2021/09/11 03:00:57;;;;;;;0.10;0.10;;;;;;;20.75;64.84;101511.28;5062163;28;20035;-89
2021/09/11 03:03:24;;;;;;;0.70;0.70;;;;;;;20.58;65.28;101520.19;5072610;28;20455;-88
2021/09/11 03:05:50;;;;;;;0.75;0.75;;;;;;;20.63;65.33;101512.75;5058811;28;20400;-89
2021/09/11 03:08:17;;;;;;;0.70;0.70;;;;;;;20.64;65.22;101513.63;5052682;28;20025;-89
2021/09/11 03:10:43;;;;;;;0.93;0.80;;;;;;;20.71;64.82;101514.16;5070487;28;20036;-91
2021/09/11 03:13:09;;;;;;;0.30;0.30;;;;;;;20.76;64.96;101506.75;5059579;28;20063;-90
2021/09/11 03:15:36;;;;;;;0.10;0.10;;;;;;;20.78;64.87;101519.19;5061843;28;20044;-89
2021/09/11 03:18:02;;;;;;;4.47;2.05;;;;;;;20.75;65.01;101515.78;5052580;28;20466;-90
2021/09/11 03:20:29;;;;;;;0.10;0.10;;;;;;;20.73;65.13;101517.69;5052087;28;20391;-90
2021/09/11 03:22:55;;;;;;;0.10;0.10;;;;;;;20.80;65.07;101519.13;5053295;28;20060;-88
2021/09/11 03:25:21;;;;;;;0.40;0.40;;;;;;;20.74;65.11;101525.69;5051852;28;20083;-89
2021/09/11 03:27:55;;;;;;;0.50;0.50;;;;;;;20.76;65.13;101518.41;5032371;28;20075;-90
2021/09/11 03:30:24;;;;;;;0.50;0.50;;;;;;;20.71;65.32;101525.88;5033656;28;20083;-90
2021/09/11 03:32:51;;;;;;;0.20;0.20;;;;;;;20.76;65.30;101517.53;5052242;28;20029;-92
2021/09/11 03:35:17;;;;;;;0.75;0.43;;;;;;;20.80;64.95;101519.13;5052551;28;20094;-91
2021/09/11 03:37:46;;;;;;;0.88;0.88;;;;;;;20.58;65.76;101513.94;5059414;28;20040;-89
2021/09/11 03:40:13;;;;;;;0.10;0.10;;;;;;;20.60;65.48;101518.31;5066056;28;20472;-89
2021/09/11 03:42:39;;;;;;;0.15;0.15;;;;;;;20.74;65.32;101519.44;5065078;28;20033;-89
2021/09/11 03:45:06;;;;;;;0.50;0.50;;;;;;;20.51;65.72;101527.72;5056311;28;20124;-90
2021/09/11 03:47:32;;;;;;;0.57;0.57;;;;;;;20.63;65.38;101517.28;5050567;28;20065;-90
2021/09/11 03:49:58;;;;;;;0.28;0.28;;;;;;;20.71;65.27;101522.25;5060576;28;20028;-90
2021/09/11 03:52:25;;;;;;;0.20;0.20;;;;;;;20.74;65.14;101519.44;5056133;28;20029;-90
2021/09/11 03:54:51;;;;;;;0.10;0.10;;;;;;;20.69;65.19;101520.50;5055592;28;20155;-91
2021/09/11 03:57:17;;;;;;;0.10;0.10;;;;;;;20.83;64.96;101524.34;5056003;28;20399;-89
2021/09/11 03:59:44;;;;;;;1.15;1.05;;;;;;;20.79;65.08;101522.78;5075107;28;20043;-90
2021/09/11 04:02:10;;;;;;;0.68;0.68;;;;;;;20.72;65.30;101526.72;5075743;28;20387;-89
2021/09/11 04:04:36;;;;;;;0.45;0.45;;;;;;;20.78;65.02;101521.03;5075125;28;20158;-90
2021/09/11 04:07:03;;;;;;;0.47;0.47;;;;;;;20.55;65.85;101531.13;5073996;28;20503;-90
2021/09/11 04:09:29;;;;;;;0.65;0.65;;;;;;;20.59;65.85;101523.78;5075366;28;20031;-89
2021/09/11 04:11:55;;;;;;;0.10;0.10;;;;;;;20.62;65.80;101521.78;5059952;28;20039;-89
2021/09/11 04:14:21;;;;;;;0.10;0.10;;;;;;;20.50;65.95;101527.81;5055150;28;20036;-88
2021/09/11 04:16:48;;;;;;;0.30;0.30;;;;;;;20.58;65.93;101525.56;5061065;28;20025;-89
2021/09/11 04:19:14;;;;;;;1.40;1.10;;;;;;;20.52;65.94;101523.19;5075380;28;20028;-89
2021/09/11 04:21:40;;;;;;;0.40;0.40;;;;;;;20.65;65.58;101532.38;5062777;28;20049;-90
2021/09/11 04:24:07;;;;;;;1.77;1.67;;;;;;;20.66;65.60;101525.16;5073049;28;20032;-89
2021/09/11 04:26:36;;;;;;;0.82;0.82;;;;;;;20.73;65.39;101521.25;5062072;28;20062;-90
2021/09/11 04:29:03;;;;;;;0.17;0.17;;;;;;;20.77;65.63;101519.28;5066908;28;20150;-89
2021/09/11 04:31:32;;;;;;;0.30;0.30;;;;;;;20.68;65.73;101526.84;5069414;28;20086;-90
2021/09/11 04:34:01;;;;;;;0.10;0.10;;;;;;;20.57;66.17;101525.66;5065562;28;20113;-90
2021/09/11 04:36:28;;;;;;;0.20;0.20;;;;;;;20.70;65.49;101529.47;5062251;28;20029;-91
2021/09/11 04:38:54;;;;;;;0.13;0.13;;;;;;;20.56;66.09;101527.50;5070456;28;20032;-90
2021/09/11 04:41:25;;;;;;;0.65;0.65;;;;;;;20.61;65.96;101536.22;5055494;28;20048;-90
2021/09/11 04:43:53;;;;;;;0.10;0.10;;;;;;;20.66;65.83;101535.94;5061789;28;20064;-90
2021/09/11 04:46:19;;;;;;;0.20;0.20;;;;;;;20.69;65.68;101531.28;5061975;28;20395;-89
2021/09/11 04:48:46;;;;;;;0.77;0.77;;;;;;;20.69;65.69;101531.28;5061499;28;20034;-90
2021/09/11 04:51:12;;;;;;;0.75;0.75;;;;;;;20.62;65.93;101532.56;5072166;28;20048;-90
2021/09/11 04:53:38;;;;;;;0.10;0.10;;;;;;;20.64;66.06;101524.41;5053957;28;20021;-90
2021/09/11 04:56:05;;;;;;;0.20;0.20;;;;;;;20.66;65.81;101535.94;5055910;28;20033;-91
2021/09/11 04:58:31;;;;;;;0.15;0.15;;;;;;;20.62;65.95;101535.25;5067442;28;20051;-90
2021/09/11 05:00:57;;;;;;;0.30;0.30;;;;;;;20.66;65.79;101544.91;5053882;28;20025;-90
2021/09/11 05:03:24;;;;;;;0.47;0.47;;;;;;;20.70;65.92;101532.16;5058024;28;20028;-90
2021/09/11 05:05:54;;;;;;;0.50;0.50;;;;;;;20.64;65.88;101538.72;5067832;28;20032;-90
2021/09/11 05:08:21;;;;;;;0.20;0.20;;;;;;;20.61;66.00;101535.31;5054552;28;20057;-91
2021/09/11 05:10:48;;;;;;;0.28;0.28;;;;;;;20.66;65.89;101536.84;5066227;28;20479;-91
2021/09/11 05:13:14;;;;;;;5.65;0.68;;;;;;;20.74;65.80;101536.47;5054478;28;20502;-89
2021/09/11 05:15:41;;;;;;;1.27;1.17;;;;;;;20.72;66.01;101543.75;5057359;28;20035;-89
2021/09/11 05:18:07;;;;;;;0.10;0.10;;;;;;;20.74;65.60;101546.38;5055096;28;20029;-90
2021/09/11 05:20:33;;;;;;;0.47;0.47;;;;;;;20.72;65.70;101543.75;5056039;28;20040;-89
2021/09/11 05:22:59;;;;;;;1.13;1.02;;;;;;;20.73;65.76;101544.63;5072355;28;20036;-90
2021/09/11 05:25:26;;;;;;;0.43;0.43;;;;;;;20.66;65.87;101546.72;5065588;28;20024;-90
2021/09/11 05:27:55;;;;;;;0.20;0.20;;;;;;;20.68;65.87;101542.13;5078734;28;20033;-90
2021/09/11 05:30:21;;;;;;;1.08;0.90;;;;;;;20.68;66.03;101537.59;5065163;28;20035;-89
2021/09/11 05:32:47;;;;;;;0.20;0.20;;;;;;;20.67;65.91;101551.16;5057292;28;20051;-89
2021/09/11 05:35:13;;;;;;;7.50;0.95;;;;;;;20.61;66.26;101546.97;5053735;28;20206;-89
2021/09/11 05:37:40;;;;;;;0.30;0.30;;;;;;;20.57;66.57;101549.88;5053373;28;20029;-92
2021/09/11 05:40:06;;;;;;;2.45;0.98;;;;;;;20.65;66.20;101548.56;5057774;28;20020;-90
2021/09/11 05:42:36;;;;;;;0.50;0.50;;;;;;;20.71;66.01;101551.88;5057791;28;20033;-88
2021/09/11 05:45:05;;;;;;;0.10;0.10;;;;;;;20.69;66.34;101557.34;5053293;28;20405;-90
2021/09/11 05:47:31;;;;;;;0.30;0.30;;;;;;;20.79;66.09;101552.38;5045566;28;20037;-89
2021/09/11 05:49:58;;;;;;;0.10;0.10;;;;;;;20.87;65.91;101546.59;5066944;28;20025;-88
2021/09/11 05:52:24;;;;;;;0.17;0.17;;;;;;;20.77;66.00;101554.28;5073180;28;20060;-88
2021/09/11 05:54:50;;;;;;;4.57;0.73;;;;;;;20.83;66.09;101556.66;5064152;28;20036;-88
2021/09/11 05:57:16;;;;;;;0.47;0.47;;;;;;;20.79;66.12;101560.47;5053877;28;20060;-89
2021/09/11 05:59:42;;;;;;;0.47;0.47;;;;;;;20.88;65.78;101570.75;5053412;28;20033;-89
2021/09/11 06:02:11;;;;;;;0.25;0.25;;;;;;;20.98;65.86;101566.63;5056496;28;20067;-88
2021/09/11 06:04:37;;;;;;;0.10;0.10;;;;;;;21.03;65.61;101569.06;5060139;28;20033;-90
2021/09/11 06:07:04;;;;;;;0.30;0.30;;;;;;;21.03;65.48;101581.69;5052781;28;20082;-88
2021/09/11 06:09:30;;;;;;;1.00;1.00;;;;;;;21.05;65.37;101582.47;5056203;28;20025;-90
2021/09/11 06:11:56;;;;;;;1.58;1.27;;;;;;;20.91;65.63;101585.88;5052536;28;20029;-87
2021/09/11 06:14:25;;;;;;;0.28;0.28;;;;;;;21.02;65.65;101591.56;5052999;28;20391;-88
2021/09/11 06:16:52;;;;;;;0.75;0.75;;;;;;;20.92;65.52;101598.41;5052663;28;20403;-88
2021/09/11 06:19:18;;;;;;;0.80;0.80;;;;;;;20.99;65.42;101600.69;5070775;28;20060;-89
2021/09/11 06:21:44;;;;;;;2.92;1.30;;;;;;;20.99;65.62;101598.00;5067534;28;20527;-88
2021/09/11 06:24:10;;;;;;;0.22;0.22;;;;;;;20.88;65.81;101589.59;5058212;28;20041;-88
2021/09/11 06:26:36;;;;;;;0.20;0.20;;;;;;;20.90;65.70;101589.53;5055112;28;20510;-88
2021/09/11 06:29:03;;;;;;;1.08;0.98;;;;;;;20.74;66.00;101589.47;5052659;28;20419;-88
2021/09/11 06:31:29;;;;;;;0.60;0.60;;;;;;;20.92;65.75;101598.41;5053362;28;20036;-93
2021/09/11 06:33:55;;;;;;;0.57;0.57;;;;;;;20.97;65.52;101591.84;5052812;28;20037;-87
2021/09/11 06:36:21;;;;;;;0.20;0.20;;;;;;;20.87;65.56;101590.56;5050266;28;20036;-89
2021/09/11 06:38:47;;;;;;;0.28;0.28;;;;;;;20.96;65.69;101600.88;5054536;28;20394;-88
2021/09/11 06:41:13;;;;;;;0.30;0.30;;;;;;;20.98;65.32;101603.47;5050388;28;20029;-89
2021/09/11 06:43:40;;;;;;;0.20;0.20;;;;;;;21.03;65.40;101603.25;5039204;28;20029;-88
2021/09/11 06:46:06;;;;;;;1.05;1.05;;;;;;;21.15;65.05;101605.28;5054598;28;20396;-89
2021/09/11 06:48:33;;;;;;;2.72;0.57;;;;;;;20.92;65.36;101609.19;5056451;28;20099;-89
2021/09/11 06:50:59;;;;;;;1.73;0.32;;;;;;;20.99;65.52;101605.22;5055151;28;20021;-89
2021/09/11 06:53:25;;;;;;;1.23;1.15;;;;;;;21.10;65.06;101612.75;5052715;28;20108;-89
2021/09/11 06:55:51;;;;;;;1.00;1.00;;;;;;;21.16;65.04;101613.28;5057295;28;20480;-89
2021/09/11 06:58:18;;;;;;;0.10;0.10;;;;;;;21.12;64.94;101610.84;5055320;28;20052;-89
2021/09/11 07:00:44;;;;;;;0.80;0.80;;;;;;;21.12;65.06;101616.22;5065327;28;20128;-88
2021/09/11 07:03:10;;;;;;;0.38;0.38;;;;;;;21.16;64.80;101612.44;5053544;28;20044;-88
2021/09/11 07:05:36;;;;;;;0.52;0.52;;;;;;;21.17;64.90;101608.75;5060793;28;20040;-88
2021/09/11 07:08:02;;;;;;;0.28;0.28;;;;;;;21.32;64.81;101615.16;5053081;28;20036;-86
2021/09/11 07:10:29;;;;;;;0.80;0.80;;;;;;;21.36;64.67;101619.47;5052028;28;20352;-88
2021/09/11 07:12:55;;;;;;;1.20;1.10;;;;;;;21.44;64.62;101616.34;5035776;28;20029;-89
2021/09/11 07:15:21;;;;;;;0.63;0.63;;;;;;;21.41;64.57;101628.16;5051935;28;20029;-89
2021/09/11 07:17:47;;;;;;;0.85;0.73;;;;;;;21.41;64.57;101621.88;5049413;28;20029;-89
2021/09/11 07:20:13;;;;;;;0.22;0.22;;;;;;;21.28;64.72;101624.38;5065243;28;20320;-86
2021/09/11 07:22:39;;;;;;;1.08;1.05;;;;;;;21.25;64.59;101620.03;5059675;28;20116;-88
2021/09/11 07:25:11;;;;;;;0.10;0.10;;;;;;;21.45;64.46;101623.50;5051828;28;20036;-89
2021/09/11 07:27:38;;;;;;;0.30;0.30;;;;;;;21.50;64.27;101622.28;5041805;28;20514;-90
2021/09/11 07:30:44;;;;;;;9.85;2.15;;;;;;;21.61;64.17;101618.19;5056152;28;20052;-92
2021/09/11 07:33:46;;;;;;;0.20;0.20;;;;;;;21.48;64.30;101634.09;5018569;28;20095;-91
2021/09/11 07:36:13;;;;;;;4.88;2.30;;;;;;;21.72;64.00;101631.06;5055104;28;20033;-87
2021/09/11 07:38:39;;;;;;;0.47;0.32;;;;;;;21.64;64.23;101624.25;5053767;28;20052;-90
2021/09/11 07:41:14;;;;;;;0.10;0.10;;;;;;;21.73;63.91;101635.50;5054663;28;20036;-89
2021/09/11 07:43:40;;;;;;;0.30;0.30;;;;;;;21.64;64.23;101637.72;5042083;28;20025;-89
2021/09/11 07:46:06;;;;;;;1.55;1.45;;;;;;;21.62;64.07;101642.34;5067231;23;20814;-81
2021/09/11 07:48:33;;;;;;;0.20;0.20;;;;;;;21.78;63.74;101636.13;5048439;28;20037;-85
2021/09/11 07:50:59;;;;;;;0.80;0.50;;;;;;;22.02;63.48;101643.81;5055527;28;20415;-80
2021/09/11 07:53:25;;;;;;;0.20;0.20;;;;;;;22.08;63.40;101643.47;5055557;28;20037;-84
2021/09/11 07:55:51;;;;;;;0.20;0.20;;;;;;;22.12;63.22;101645.06;5055890;28;20021;-80
2021/09/11 07:58:18;;;;;;;1.45;1.35;;;;;;;22.18;62.89;101649.22;5055221;28;20021;-89
2021/09/11 08:00:44;;;;;;;1.50;1.13;;;;;;;22.27;63.09;101656.81;5044479;28;20028;-79
2021/09/11 08:03:10;;;;;;;0.35;0.35;;;;;;;22.27;62.83;101654.13;5053554;28;20037;-88
2021/09/11 08:05:37;;;;;;;1.25;1.25;;;;;;;22.23;63.13;101653.41;5054147;28;20025;-85
2021/09/11 08:08:03;;;;;;;0.20;0.20;;;;;;;22.27;62.74;101641.47;5044419;28;20017;-86
2021/09/11 08:10:30;;;;;;;0.55;0.55;;;;;;;22.33;62.86;101644.78;5050169;28;20048;-86
2021/09/11 08:12:56;;;;;;;0.80;0.80;;;;;;;22.48;62.54;101646.66;5052695;28;20392;-86
2021/09/11 08:15:22;;;;;;;0.20;0.20;;;;;;;22.65;62.36;101648.34;5039371;28;20029;-87
2021/09/11 08:17:48;;;;;;;0.20;0.20;;;;;;;22.61;62.37;101647.66;5051583;28;20025;-88
2021/09/11 08:20:14;;;;;;;1.38;1.27;;;;;;;22.65;62.14;101652.91;5054327;28;20094;-84
2021/09/11 08:22:42;;;;;;;0.20;0.20;;;;;;;22.49;61.92;101653.78;5054378;28;20117;-86
2021/09/11 08:25:09;;;;;;;2.80;2.03;;;;;;;22.53;62.12;101655.34;5054397;28;20044;-86
2021/09/11 08:27:36;;;;;;;0.35;0.35;;;;;;;22.65;61.84;101658.31;5053623;28;20079;-85
2021/09/11 08:30:05;;;;;;;0.57;0.57;;;;;;;22.53;62.05;101673.38;5052446;28;20029;-85
2021/09/11 08:32:36;;;;;;;1.05;0.63;;;;;;;22.47;61.81;101661.09;5051656;28;20695;-83
2021/09/11 08:35:03;;;;;;;0.30;0.30;;;;;;;22.51;61.98;101665.38;5052779;28;20075;-85
2021/09/11 08:37:29;;;;;;;0.85;0.82;;;;;;;22.58;62.01;101668.56;5053903;28;20430;-85
2021/09/11 08:39:55;;;;;;;1.52;1.23;;;;;;;22.59;61.95;101679.31;5054308;28;20047;-83
2021/09/11 08:42:22;;;;;;;0.73;0.73;;;;;;;22.46;62.10;101681.81;5055081;28;20036;-83
2021/09/11 08:44:48;;;;;;;0.32;0.32;;;;;;;22.65;61.70;101674.50;5054443;28;20029;-84
2021/09/11 08:47:15;;;;;;;0.75;0.75;;;;;;;22.60;62.09;101672.97;5054433;28;20029;-84
2021/09/11 08:49:41;;;;;;;0.90;0.82;;;;;;;22.71;62.03;101680.41;5054025;28;20029;-85
2021/09/11 08:52:07;;;;;;;0.20;0.20;;;;;;;22.95;61.63;101669.13;5054133;28;20068;-84
2021/09/11 08:54:35;;;;;;;1.13;1.13;;;;;;;23.12;61.27;101678.94;5054302;28;20361;-84
2021/09/11 09:00:07;;;;;;;0.45;0.32;;;;;;;23.34;60.24;101685.78;5072158;28;20411;-82
2021/09/11 09:02:35;;;;;;;1.60;1.52;;;;;;;23.42;59.77;101699.72;5062219;28;20027;-85
2021/09/11 09:05:03;;;;;;;0.47;0.47;;;;;;;23.30;59.84;101689.63;5064628;28;20047;-84
2021/09/11 09:10:13;;;;;;;0.88;0.70;;;;;;;23.13;60.27;101685.19;5068536;27;20427;-80
2021/09/11 09:12:41;;;;;;;0.47;0.47;;;;;;;23.34;60.02;101692.06;5059608;28;20131;-84
2021/09/11 09:15:11;;;;;;;0.85;0.70;;;;;;;23.22;60.14;101692.81;5064342;28;20036;-84
2021/09/11 09:17:39;;;;;;;1.45;1.35;;;;;;;23.32;59.91;101693.13;5060574;28;20475;-85
2021/09/11 09:25:45;;;;;;;0.40;0.40;;;;;;;23.47;59.15;101705.72;5080392;27;20416;-81
2021/09/11 09:28:14;;;;;;;12.02;1.45;;;;;;;23.44;59.58;101697.78;5061032;28;20037;-84
2021/09/11 09:30:43;;;;;;;2.13;1.40;;;;;;;23.52;59.25;101691.91;5056946;28;20025;-78
2021/09/11 09:33:22;;;;;;;0.13;0.13;;;;;;;23.56;59.51;101686.22;5063026;28;20033;-84
2021/09/11 09:35:49;;;;;;;0.35;0.35;;;;;;;23.35;60.18;101695.63;5067314;28;20471;-82
2021/09/11 09:38:16;;;;;;;0.60;0.60;;;;;;;23.35;60.28;101696.53;5067947;28;20112;-85
2021/09/11 09:40:47;;;;;;;1.35;1.33;;;;;;;23.40;59.95;101694.41;5066140;28;20032;-85
2021/09/11 09:43:30;;;;;;;1.13;1.13;;;;;;;23.49;59.66;101692.97;5066850;28;20425;-82
2021/09/11 09:46:17;;;;;;;2.92;1.48;;;;;;;23.81;59.27;101698.19;5063459;28;20098;-87
2021/09/11 09:48:45;;;;;;;0.32;0.32;;;;;;;23.75;58.97;101695.88;5055188;28;20024;-84
2021/09/11 09:51:17;;;;;;;0.55;0.55;;;;;;;23.57;59.72;101700.59;5066528;28;20064;-84
2021/09/11 09:53:46;;;;;;;0.50;0.50;;;;;;;23.63;59.60;101704.75;5061019;28;20043;-84
2021/09/11 09:56:12;;;;;;;0.20;0.20;;;;;;;23.52;59.63;101711.69;5059921;28;20025;-85
2021/09/11 09:58:39;;;;;;;0.32;0.32;;;;;;;23.75;59.56;101706.69;5056429;28;20025;-84
2021/09/11 10:01:06;;;;;;;0.28;0.28;;;;;;;23.87;59.30;101695.09;5062112;28;20037;-84
2021/09/11 10:03:33;;;;;;;0.82;0.75;;;;;;;23.67;59.64;101695.50;5059204;28;20373;-85
2021/09/11 10:06:06;;;;;;;1.50;1.35;;;;;;;23.92;59.29;101696.72;5060918;28;20372;-84
2021/09/11 10:08:37;;;;;;;0.45;0.45;;;;;;;23.77;59.41;101696.66;5059703;28;20059;-84
2021/09/11 10:11:10;;;;;;;1.60;1.50;;;;;;;24.00;59.27;101691.66;5058692;28;20018;-83
2021/09/11 10:13:37;;;;;;;0.43;0.43;;;;;;;23.87;59.73;101699.66;5057884;28;20029;-82
2021/09/11 10:16:08;;;;;;;0.28;0.28;;;;;;;24.11;58.97;101699.09;5058388;28;20025;-81
2021/09/11 10:35:07;;;;;;;0.20;0.20;;;;;;;24.46;57.67;101687.84;5070879;28;20872;-81
2021/09/11 10:40:38;;;;;;;1.50;1.08;;;;;;;24.21;58.52;101690.31;5090371;27;20406;-79
2021/09/11 10:43:16;;;;;;;0.90;0.88;;;;;;;24.43;58.24;101694.31;5054763;28;20033;-79
2021/09/11 10:46:02;;;;;;;0.28;0.28;;;;;;;24.51;57.97;101692.00;5081606;22;20041;-87
2021/09/11 10:48:48;;;;;;;1.48;0.88;;;;;;;24.75;58.38;101685.94;5068074;28;20398;-87
2021/09/11 10:51:33;;;;;;;0.38;0.38;;;;;;;24.72;56.79;101683.41;5069656;28;20029;-87
2021/09/11 10:59:25;;;;;;;0.20;0.20;;;;;;;24.54;57.41;101697.19;5065920;28;20413;-86
2021/09/11 11:04:55;;;;;;;0.15;0.15;;;;;;;24.51;57.75;101691.09;5151467;27;20389;-85
2021/09/11 11:07:27;;;;;;;0.20;0.20;;;;;;;24.65;57.77;101692.94;5123242;27;20032;-86
2021/09/11 11:10:05;;;;;;;3.33;2.03;;;;;;;24.50;57.67;101690.25;5121788;28;20031;-87
2021/09/11 11:12:37;;;;;;;0.65;0.65;;;;;;;24.52;57.98;101688.31;5124276;27;20059;-86
2021/09/11 11:15:08;;;;;;;0.10;0.10;;;;;;;24.32;59.00;101696.84;5122274;28;20088;-86
2021/09/11 11:17:37;;;;;;;2.03;1.08;;;;;;;24.39;59.68;101695.50;5122080;28;20049;-86
2021/09/11 11:20:05;;;;;;;0.45;0.45;;;;;;;24.09;60.58;101695.63;5130674;27;20478;-86
2021/09/11 11:22:35;;;;;;;0.32;0.32;;;;;;;24.08;60.27;101693.91;5130638;28;20041;-86
2021/09/11 11:25:04;;;;;;;0.20;0.20;;;;;;;24.15;60.25;101690.69;5117120;27;20451;-87
2021/09/11 11:27:31;;;;;;;0.50;0.50;;;;;;;23.97;60.95;101686.47;5130546;28;20031;-86
2021/09/11 11:29:59;;;;;;;0.10;0.10;;;;;;;24.10;60.41;101690.13;5130607;27;20034;-88
2021/09/11 11:32:28;;;;;;;0.28;0.28;;;;;;;24.20;60.49;101687.69;5130323;27;20068;-86
2021/09/11 11:34:59;;;;;;;0.50;0.50;;;;;;;24.23;60.37;101680.22;5130389;27;20024;-86
2021/09/11 11:37:29;;;;;;;1.75;0.80;;;;;;;24.43;60.21;101680.78;5130293;28;20027;-86
2021/09/11 11:39:59;;;;;;;0.10;0.10;;;;;;;24.51;59.38;101686.56;5130308;27;20023;-86
2021/09/11 11:42:27;;;;;;;0.50;0.50;;;;;;;24.55;59.24;101677.25;5130132;28;20419;-86
2021/09/11 11:44:55;;;;;;;0.40;0.40;;;;;;;24.80;59.10;101691.91;5130095;27;20027;-86
2021/09/11 11:50:08;;;;;;;0.60;0.60;;;;;;;24.91;57.65;101688.50;5105595;27;20388;-87
2021/09/11 11:52:35;;;;;;;0.40;0.40;;;;;;;24.69;59.09;101689.06;5110378;28;20043;-88
2021/09/11 11:55:08;;;;;;;0.30;0.30;;;;;;;24.35;58.38;101696.66;5107049;28;20034;-87
2021/09/11 11:57:34;;;;;;;0.47;0.47;;;;;;;24.18;59.15;101698.63;5090010;28;20466;-86
2021/09/11 12:00:05;;;;;;;1.02;0.25;;;;;;;24.40;58.04;101683.69;5090369;28;20043;-87
2021/09/11 12:02:33;;;;;;;0.10;0.10;;;;;;;24.39;58.17;101687.38;5089991;28;20643;-88
2021/09/11 12:05:18;;;;;;;0.20;0.20;;;;;;;24.73;57.57;101679.75;5084267;28;20061;-87
2021/09/11 12:10:35;;;;;;;0.10;0.10;;;;;;;24.76;56.97;101676.84;5127509;27;20829;-87
2021/09/11 12:15:48;;;;;;;0.10;0.10;;;;;;;24.80;56.15;101678.38;5159418;27;20934;-86
2021/09/11 12:18:18;;;;;;;0.10;0.10;;;;;;;25.06;56.34;101675.75;5150777;27;20027;-86
2021/09/11 12:20:54;;;;;;;0.10;0.10;;;;;;;25.08;55.33;101676.47;5151659;27;20092;-86